Time;durP1;ratioP1;P1;durP2;ratioP2;P2;SDS_P1;SDS_P2;PMS_P1;PMS_P2;Temp;Humidity;BMP_temperature;BMP_pressure;BME280_temperature;BME280_humidity;BME280_pressure;Samples;Min_cycle;Max_cycle;Signal;HPM_P1;HPM_P2
2024/02/28 00:00:52;;;;;;;;;;;;;;;15.78;70.14;98817.21;68425;1279;1015803;-70
2024/02/28 00:04:15;;;;;;;;;;;;;;;15.85;70.14;98821.83;68421;1279;1016304;-70
2024/02/28 00:07:18;;;;;;;;;;;;;;;15.87;70.08;98821.86;68429;1279;1014937;-70
2024/02/28 00:10:21;;;;;;;;;;;;;;;15.88;69.81;98830.97;68432;1279;1015765;-70
2024/02/28 00:13:24;;;;;;;;;;;;;;;15.96;69.62;98833.61;68413;1279;1016113;-70
2024/02/28 00:16:27;;;;;;;;;;;;;;;16.08;69.29;98829.13;68424;1279;1015129;-70
2024/02/28 00:19:29;;;;;;;;;;;;;;;16.09;68.64;98820.67;68429;1279;1015845;-70
2024/02/28 00:22:32;;;;;;;;;;;;;;;15.92;68.52;98814.19;68405;1279;1015523;-70
2024/02/28 00:25:34;;;;;;;;;;;;;;;15.63;69.03;98817.98;68426;1279;1015341;-70
2024/02/28 00:28:37;;;;;;;;;;;;;;;15.35;70.78;98817.04;68425;1279;1015999;-70
2024/02/28 00:31:40;;;;;;;;;;;;;;;15.30;71.59;98819.06;68439;1279;1016044;-70
2024/02/28 00:34:42;;;;;;;;;;;;;;;15.36;71.61;98814.31;68425;1279;1016109;-70
2024/02/28 00:37:45;;;;;;;;;;;;;;;15.46;71.48;98813.56;68428;1279;1015122;-69
2024/02/28 00:40:47;;;;;;;;;;;;;;;15.62;70.91;98810.27;68358;1281;1015475;-70
2024/02/28 00:43:50;;;;;;;;;;;;;;;15.62;70.79;98811.20;68361;1281;1015803;-70
2024/02/28 00:46:52;;;;;;;;;;;;;;;15.66;70.92;98809.41;68344;1281;1015407;-70
2024/02/28 00:49:55;;;;;;;;;;;;;;;15.62;71.30;98804.63;68357;1281;1016092;-67
2024/02/28 00:52:57;;;;;;;;;;;;;;;15.54;71.35;98809.49;68357;1281;1015916;-71
2024/02/28 00:56:00;;;;;;;;;;;;;;;15.45;71.72;98807.26;68357;1281;1016414;-69
2024/02/28 00:59:03;;;;;;;;;;;;;;;15.37;72.07;98808.10;68339;1281;1016117;-70
2024/02/28 01:02:05;;;;;;;;;;;;;;;15.30;72.57;98804.09;68354;1281;1015608;-70
2024/02/28 01:05:08;;;;;;;;;;;;;;;15.33;72.79;98803.31;68345;1281;1015934;-70
2024/02/28 01:08:10;;;;;;;;;;;;;;;15.20;72.80;98804.88;68345;1281;1015881;-71
2024/02/28 01:11:13;;;;;;;;;;;;;;;14.99;74.17;98810.02;68342;1281;1015454;-70
2024/02/28 01:14:15;;;;;;;;;;;;;;;14.82;74.81;98811.95;68352;1281;1015382;-70
2024/02/28 01:17:18;;;;;;;;;;;;;;;14.64;74.31;98805.54;68350;1281;1016600;-70
2024/02/28 01:20:20;;;;;;;;;;;;;;;14.61;74.17;98810.55;68366;1281;1014961;-71
2024/02/28 01:23:23;;;;;;;;;;;;;;;14.59;74.12;98815.27;68360;1281;1015316;-70
2024/02/28 01:26:25;;;;;;;;;;;;;;;14.55;74.03;98808.34;68350;1281;1015486;-71
2024/02/28 01:29:28;;;;;;;;;;;;;;;14.56;75.04;98810.89;68357;1281;1015494;-71
2024/02/28 01:32:30;;;;;;;;;;;;;;;14.71;75.22;98814.71;68365;1281;1015248;-70
2024/02/28 01:35:33;;;;;;;;;;;;;;;14.82;74.28;98811.21;68349;1281;1015831;-62
2024/02/28 01:38:35;;;;;;;;;;;;;;;14.94;74.68;98813.12;68350;1281;1015868;-70
2024/02/28 01:41:38;;;;;;;;;;;;;;;15.09;74.73;98812.09;68360;1281;1015885;-70
2024/02/28 01:44:40;;;;;;;;;;;;;;;15.18;73.91;98817.55;68339;1281;1016040;-69
2024/02/28 01:47:43;;;;;;;;;;;;;;;15.19;74.09;98814.45;68364;1281;1015512;-70
2024/02/28 01:50:45;;;;;;;;;;;;;;;15.28;73.74;98819.70;68339;1281;1015938;-70
2024/02/28 01:53:48;;;;;;;;;;;;;;;15.29;72.41;98818.46;68341;1281;1015439;-71
2024/02/28 01:56:50;;;;;;;;;;;;;;;15.16;71.65;98817.89;68363;1281;1015617;-70
2024/02/28 01:59:54;;;;;;;;;;;;;;;14.98;72.38;98826.52;68345;1281;1015802;-69
2024/02/28 02:02:57;;;;;;;;;;;;;;;14.79;72.48;98824.61;68333;1281;1015216;-70
2024/02/28 02:06:00;;;;;;;;;;;;;;;14.76;72.96;98828.54;68353;1281;1015523;-70
2024/02/28 02:09:03;;;;;;;;;;;;;;;14.90;73.47;98832.73;68344;1281;1015642;-70
2024/02/28 02:12:05;;;;;;;;;;;;;;;15.01;73.70;98837.35;68347;1281;1015968;-70
2024/02/28 02:15:07;;;;;;;;;;;;;;;15.09;73.47;98841.64;68355;1281;1016248;-70
2024/02/28 02:18:10;;;;;;;;;;;;;;;15.06;73.44;98842.45;68349;1281;1015871;-70
2024/02/28 02:21:12;;;;;;;;;;;;;;;14.99;73.74;98842.83;68345;1281;1016035;-70
2024/02/28 02:24:15;;;;;;;;;;;;;;;14.97;73.68;98847.04;68355;1281;1015358;-70
2024/02/28 02:27:17;;;;;;;;;;;;;;;14.97;72.95;98842.77;68353;1281;1015618;-71
2024/02/28 02:30:20;;;;;;;;;;;;;;;15.00;72.15;98844.83;68343;1281;1015546;-70
2024/02/28 02:33:22;;;;;;;;;;;;;;;15.01;71.88;98843.89;68359;1281;1015577;-70
2024/02/28 02:36:25;;;;;;;;;;;;;;;15.03;71.11;98847.11;68363;1281;1015694;-70
2024/02/28 02:39:27;;;;;;;;;;;;;;;14.91;72.40;98844.33;68341;1281;1015887;-70
2024/02/28 02:42:30;;;;;;;;;;;;;;;14.81;72.73;98849.65;68331;1281;1015710;-70
2024/02/28 02:45:33;;;;;;;;;;;;;;;14.85;72.67;98841.56;68350;1281;1016089;-70
2024/02/28 02:48:36;;;;;;;;;;;;;;;14.82;71.73;98845.89;68358;1281;1015551;-70
2024/02/28 02:51:43;;;;;;;;;;;;;;;14.67;72.37;98843.16;68343;1281;1015962;-71
2024/02/28 02:54:45;;;;;;;;;;;;;;;14.69;72.37;98844.08;68350;1281;1015975;-70
2024/02/28 02:57:48;;;;;;;;;;;;;;;14.80;71.93;98849.23;68364;1281;1015370;-70
2024/02/28 03:00:50;;;;;;;;;;;;;;;14.70;72.12;98845.76;68346;1281;1015631;-70
2024/02/28 03:03:53;;;;;;;;;;;;;;;14.53;71.67;98852.67;68352;1281;1015906;-70
2024/02/28 03:06:56;;;;;;;;;;;;;;;14.53;72.24;98851.09;68352;1281;1015899;-70
2024/02/28 03:09:58;;;;;;;;;;;;;;;14.52;72.53;98848.84;68350;1281;1016881;-69
2024/02/28 03:13:01;;;;;;;;;;;;;;;14.46;72.90;98849.16;68349;1281;1015924;-70
2024/02/28 03:16:04;;;;;;;;;;;;;;;14.33;72.21;98848.18;68355;1281;1016189;-70
2024/02/28 03:19:09;;;;;;;;;;;;;;;14.32;72.03;98851.60;68329;1281;1015240;-70
2024/02/28 03:22:12;;;;;;;;;;;;;;;14.27;71.60;98852.50;68354;1281;1015746;-69
2024/02/28 03:25:14;;;;;;;;;;;;;;;14.20;72.23;98855.54;68353;1281;1015367;-70
2024/02/28 03:28:17;;;;;;;;;;;;;;;14.30;72.31;98853.52;68343;1281;1016341;-70
2024/02/28 03:31:19;;;;;;;;;;;;;;;14.17;72.84;98853.06;68336;1281;1015521;-70
2024/02/28 03:34:22;;;;;;;;;;;;;;;14.20;73.47;98859.34;68355;1281;1015820;-70
2024/02/28 03:37:26;;;;;;;;;;;;;;;14.10;73.60;98860.79;68342;1281;1015350;-70
2024/02/28 03:40:28;;;;;;;;;;;;;;;14.23;74.01;98864.63;68342;1281;1015374;-70
2024/02/28 03:43:31;;;;;;;;;;;;;;;14.34;74.18;98862.71;68345;1281;1016019;-70
2024/02/28 03:46:33;;;;;;;;;;;;;;;14.48;74.38;98864.67;68341;1281;1015272;-70
2024/02/28 03:49:36;;;;;;;;;;;;;;;14.62;73.40;98868.89;68340;1281;1015857;-70
2024/02/28 03:52:39;;;;;;;;;;;;;;;14.63;73.34;98871.11;68331;1281;1015271;-71
2024/02/28 03:55:43;;;;;;;;;;;;;;;14.67;73.09;98868.34;68328;1281;1014849;-70
2024/02/28 03:58:46;;;;;;;;;;;;;;;14.72;72.59;98871.46;68343;1281;1016298;-70
2024/02/28 04:01:48;;;;;;;;;;;;;;;14.66;73.02;98872.99;68360;1281;1015693;-70
2024/02/28 04:04:51;;;;;;;;;;;;;;;14.68;73.05;98869.73;68346;1281;1015938;-70
2024/02/28 04:07:53;;;;;;;;;;;;;;;14.69;73.02;98874.02;68330;1281;1015758;-69
2024/02/28 04:10:56;;;;;;;;;;;;;;;14.69;72.96;98867.14;68344;1281;1015292;-70
2024/02/28 04:13:58;;;;;;;;;;;;;;;14.65;72.63;98873.96;68344;1281;1015200;-70
2024/02/28 04:17:01;;;;;;;;;;;;;;;14.65;72.78;98878.85;68336;1281;1015324;-68
2024/02/28 04:20:04;;;;;;;;;;;;;;;14.76;72.47;98873.96;68341;1281;1015729;-70
2024/02/28 04:23:07;;;;;;;;;;;;;;;14.80;72.35;98874.22;68334;1281;1015761;-70
2024/02/28 04:26:10;;;;;;;;;;;;;;;14.78;72.55;98872.61;68341;1281;1016140;-70
2024/02/28 04:29:13;;;;;;;;;;;;;;;14.71;72.38;98876.29;68350;1281;1016034;-71
2024/02/28 04:32:16;;;;;;;;;;;;;;;14.56;72.54;98875.14;68325;1281;1015672;-70
2024/02/28 04:35:19;;;;;;;;;;;;;;;14.53;72.75;98876.05;68345;1281;1015734;-70
2024/02/28 04:38:22;;;;;;;;;;;;;;;14.39;72.88;98873.92;68326;1281;1016100;-71
2024/02/28 04:41:24;;;;;;;;;;;;;;;14.27;73.28;98874.50;68341;1281;1014276;-70
2024/02/28 04:44:27;;;;;;;;;;;;;;;14.34;73.70;98874.48;68337;1281;1015303;-70
2024/02/28 04:47:30;;;;;;;;;;;;;;;14.35;73.44;98877.95;68332;1281;1016052;-70
2024/02/28 04:50:32;;;;;;;;;;;;;;;14.41;73.35;98881.06;68353;1281;1014695;-71
2024/02/28 04:53:35;;;;;;;;;;;;;;;14.43;73.55;98880.48;68329;1281;1016081;-66
2024/02/28 04:56:38;;;;;;;;;;;;;;;14.49;73.28;98876.48;68315;1281;1014659;-69
2024/02/28 04:59:40;;;;;;;;;;;;;;;14.45;73.58;98876.01;68338;1281;1015265;-70
2024/02/28 05:02:43;;;;;;;;;;;;;;;14.40;73.98;98878.13;68338;1281;1015469;-70
2024/02/28 05:05:45;;;;;;;;;;;;;;;14.57;72.98;98873.79;68315;1281;1016141;-69
2024/02/28 05:08:48;;;;;;;;;;;;;;;14.50;72.90;98876.24;68347;1281;1015930;-70
2024/02/28 05:11:50;;;;;;;;;;;;;;;14.46;73.67;98875.89;68335;1281;1016065;-70
2024/02/28 05:14:53;;;;;;;;;;;;;;;14.64;73.74;98886.14;68337;1281;1016085;-71
2024/02/28 05:17:56;;;;;;;;;;;;;;;14.73;72.83;98884.23;68333;1280;1015319;-70
2024/02/28 05:20:58;;;;;;;;;;;;;;;14.69;72.45;98888.77;68350;1281;1016450;-71
2024/02/28 05:24:01;;;;;;;;;;;;;;;14.59;72.43;98886.66;68341;1281;1015909;-71
2024/02/28 05:27:04;;;;;;;;;;;;;;;14.54;72.25;98891.83;68345;1281;1015741;-70
2024/02/28 05:30:06;;;;;;;;;;;;;;;14.48;72.62;98891.22;68333;1281;1015772;-70
2024/02/28 05:33:09;;;;;;;;;;;;;;;14.43;73.19;98897.38;68332;1281;1015572;-70
2024/02/28 05:36:12;;;;;;;;;;;;;;;14.37;73.33;98902.96;68337;1281;1016089;-70
2024/02/28 05:39:14;;;;;;;;;;;;;;;14.26;74.14;98906.58;68379;1280;1015951;-70
2024/02/28 05:42:21;;;;;;;;;;;;;;;14.29;74.45;98910.04;68426;1279;1016165;-71
2024/02/28 05:45:24;;;;;;;;;;;;;;;14.40;74.45;98914.02;68412;1280;1015423;-70
2024/02/28 05:48:26;;;;;;;;;;;;;;;14.43;74.38;98921.66;68425;1280;1015417;-70
2024/02/28 05:51:29;;;;;;;;;;;;;;;14.52;74.21;98923.77;68434;1280;1015476;-71
2024/02/28 05:54:33;;;;;;;;;;;;;;;14.59;73.74;98932.27;68419;1280;1015281;-70
2024/02/28 05:57:36;;;;;;;;;;;;;;;14.62;73.72;98931.69;68423;1280;1016194;-70
2024/02/28 06:00:39;;;;;;;;;;;;;;;14.65;73.09;98934.87;68414;1280;1015503;-70
2024/02/28 06:03:41;;;;;;;;;;;;;;;14.50;73.01;98935.92;68423;1280;1015282;-70
2024/02/28 06:06:44;;;;;;;;;;;;;;;14.38;73.06;98935.46;68438;1279;1015493;-69
2024/02/28 06:09:46;;;;;;;;;;;;;;;14.25;73.47;98935.31;68423;1280;1016032;-70
2024/02/28 06:12:49;;;;;;;;;;;;;;;14.19;74.53;98937.90;68432;1280;1016193;-70
2024/02/28 06:15:52;;;;;;;;;;;;;;;14.15;74.44;98933.41;68418;1280;1014689;-70
2024/02/28 06:18:54;;;;;;;;;;;;;;;14.15;74.58;98938.84;68419;1280;1015919;-70
2024/02/28 06:21:57;;;;;;;;;;;;;;;14.18;75.24;98932.65;68428;1280;1015673;-69
2024/02/28 06:24:59;;;;;;;;;;;;;;;14.25;75.35;98934.10;68434;1280;1016048;-70
2024/02/28 06:28:02;;;;;;;;;;;;;;;14.28;76.04;98940.39;68404;1280;1016261;-70
2024/02/28 06:31:05;;;;;;;;;;;;;;;14.43;76.19;98940.86;68441;1279;1016012;-70
2024/02/28 06:34:08;;;;;;;;;;;;;;;14.59;75.51;98941.92;68432;1280;1014188;-64
2024/02/28 06:37:11;;;;;;;;;;;;;;;14.64;74.80;98944.63;68421;1280;1015517;-70
2024/02/28 06:40:13;;;;;;;;;;;;;;;14.59;75.20;98946.85;68422;1280;1015388;-70
2024/02/28 06:43:16;;;;;;;;;;;;;;;14.55;75.94;98944.88;68415;1280;1016364;-70
2024/02/28 06:46:19;;;;;;;;;;;;;;;14.58;75.51;98945.02;68412;1280;1015287;-70
2024/02/28 06:49:22;;;;;;;;;;;;;;;14.60;75.47;98946.10;68418;1279;1015453;-67
2024/02/28 06:52:24;;;;;;;;;;;;;;;14.61;75.44;98952.54;68407;1279;1014410;-70
2024/02/28 06:55:27;;;;;;;;;;;;;;;14.62;75.29;98950.86;68428;1280;1015640;-70
2024/02/28 06:58:30;;;;;;;;;;;;;;;14.59;75.35;98951.14;68406;1280;1015725;-70
2024/02/28 07:01:32;;;;;;;;;;;;;;;14.64;75.53;98955.54;68388;1280;1015966;-70
2024/02/28 07:04:35;;;;;;;;;;;;;;;14.76;75.46;98949.29;68417;1279;1015824;-70
2024/02/28 07:07:37;;;;;;;;;;;;;;;14.87;74.92;98950.93;68399;1279;1016099;-62
2024/02/28 07:10:43;;;;;;;;;;;;;;;14.99;74.23;98953.18;68392;1280;1015634;-70
2024/02/28 07:13:45;;;;;;;;;;;;;;;15.05;73.75;98957.14;68420;1280;1016244;-66
2024/02/28 07:16:48;;;;;;;;;;;;;;;15.12;73.17;98951.86;68403;1280;1015334;-69
2024/02/28 07:19:50;;;;;;;;;;;;;;;15.17;72.93;98955.33;68427;1280;1016379;-70
2024/02/28 07:22:53;;;;;;;;;;;;;;;15.22;72.68;98956.20;68420;1280;1015222;-70
2024/02/28 07:25:57;;;;;;;;;;;;;;;15.29;72.86;98956.17;68408;1280;1016680;-70
2024/02/28 07:28:59;;;;;;;;;;;;;;;15.39;73.30;98959.45;68410;1280;1015444;-70
2024/02/28 07:32:02;;;;;;;;;;;;;;;15.60;73.58;98964.98;68417;1280;1015976;-70
2024/02/28 07:35:05;;;;;;;;;;;;;;;15.78;72.60;98964.30;68410;1280;1016214;-70
2024/02/28 07:38:08;;;;;;;;;;;;;;;15.85;72.26;98965.88;68418;1279;1016046;-70
2024/02/28 07:41:11;;;;;;;;;;;;;;;16.01;71.62;98968.61;68429;1280;1015718;-70
2024/02/28 07:44:14;;;;;;;;;;;;;;;16.16;71.14;98967.42;68416;1280;1015310;-70
2024/02/28 07:47:16;;;;;;;;;;;;;;;16.18;71.16;98967.27;68422;1280;1015898;-70
2024/02/28 07:50:19;;;;;;;;;;;;;;;16.30;71.20;98964.02;68419;1280;1015280;-70
2024/02/28 07:53:22;;;;;;;;;;;;;;;16.61;71.28;98963.88;68401;1280;1016014;-70
2024/02/28 07:56:25;;;;;;;;;;;;;;;16.81;70.04;98957.76;68417;1280;1016218;-69
2024/02/28 07:59:27;;;;;;;;;;;;;;;16.84;69.20;98956.70;68432;1280;1016024;-70
2024/02/28 08:02:30;;;;;;;;;;;;;;;16.69;69.63;98955.15;68400;1280;1015524;-70
2024/02/28 08:05:37;;;;;;;;;;;;;;;16.99;69.81;98959.18;65741;1280;5497555;-70
2024/02/28 08:08:39;;;;;;;;;;;;;;;17.29;69.21;98963.33;68407;1280;1015285;-70
2024/02/28 08:11:42;;;;;;;;;;;;;;;17.40;68.73;98960.23;68417;1280;1014920;-70
2024/02/28 08:14:45;;;;;;;;;;;;;;;17.52;68.56;98956.86;68418;1279;1015360;-70
2024/02/28 08:17:48;;;;;;;;;;;;;;;17.67;68.34;98955.23;68419;1280;1015616;-70
2024/02/28 08:20:52;;;;;;;;;;;;;;;17.93;67.85;98953.48;68407;1280;1016005;-60
2024/02/28 08:23:55;;;;;;;;;;;;;;;18.05;67.17;98953.27;68413;1280;1015777;-70
2024/02/28 08:26:58;;;;;;;;;;;;;;;17.98;66.53;98955.00;68401;1279;1016082;-69
2024/02/28 08:30:00;;;;;;;;;;;;;;;17.99;66.46;98949.23;68407;1279;1015497;-70
2024/02/28 08:33:11;;;;;;;;;;;;;;;18.05;67.31;98953.29;68373;1280;1016303;-70
2024/02/28 08:36:15;;;;;;;;;;;;;;;18.32;66.06;98952.40;68408;1279;1015943;-68
2024/02/28 08:39:17;;;;;;;;;;;;;;;18.36;66.07;98950.52;68402;1279;1015753;-70
2024/02/28 08:42:20;;;;;;;;;;;;;;;18.45;66.27;98957.12;68402;1279;1015998;-70
2024/02/28 08:45:23;;;;;;;;;;;;;;;18.59;65.23;98954.79;68418;1279;1014496;-70
2024/02/28 08:48:25;;;;;;;;;;;;;;;18.73;65.41;98959.30;68413;1279;1014914;-70
2024/02/28 08:51:28;;;;;;;;;;;;;;;18.97;65.49;98958.21;68394;1279;1015866;-70
2024/02/28 08:54:30;;;;;;;;;;;;;;;19.14;65.09;98953.41;68410;1279;1015825;-70
2024/02/28 08:57:34;;;;;;;;;;;;;;;19.40;65.36;98954.33;68404;1279;1016009;-70
2024/02/28 09:00:36;;;;;;;;;;;;;;;19.64;64.72;98954.70;68402;1279;1015415;-70
2024/02/28 09:03:39;;;;;;;;;;;;;;;19.80;64.20;98954.20;68411;1279;1016048;-70
2024/02/28 09:06:42;;;;;;;;;;;;;;;19.74;62.50;98948.52;68387;1279;1015767;-70
2024/02/28 09:09:44;;;;;;;;;;;;;;;19.72;64.40;98950.92;68401;1279;1014603;-66
2024/02/28 09:12:47;;;;;;;;;;;;;;;19.89;64.20;98951.21;68416;1279;1015699;-70
2024/02/28 09:15:50;;;;;;;;;;;;;;;20.06;63.82;98954.31;68405;1279;1015769;-70
2024/02/28 09:18:52;;;;;;;;;;;;;;;20.31;63.34;98952.68;68392;1279;1015702;-70
2024/02/28 09:21:55;;;;;;;;;;;;;;;20.53;62.27;98952.86;68405;1279;1016022;-70
2024/02/28 09:24:57;;;;;;;;;;;;;;;20.74;62.17;98948.73;68394;1279;1016203;-63
2024/02/28 09:28:01;;;;;;;;;;;;;;;20.95;61.14;98952.41;68411;1279;1015548;-70
2024/02/28 09:31:03;;;;;;;;;;;;;;;21.18;60.37;98952.44;68405;1268;1015770;-69
2024/02/28 09:34:09;;;;;;;;;;;;;;;21.21;60.26;98954.73;68404;1279;1015592;-70
2024/02/28 09:37:11;;;;;;;;;;;;;;;21.35;59.02;98955.79;68404;1279;1015436;-68
2024/02/28 09:40:14;;;;;;;;;;;;;;;21.40;59.79;98956.73;68421;1279;1015967;-70
2024/02/28 09:43:17;;;;;;;;;;;;;;;21.58;59.31;98959.33;68414;1279;1015284;-70
2024/02/28 09:46:19;;;;;;;;;;;;;;;21.81;58.14;98956.38;68419;1279;1015280;-70
2024/02/28 09:49:23;;;;;;;;;;;;;;;21.81;56.59;98966.59;68398;1279;1016166;-70
2024/02/28 09:52:27;;;;;;;;;;;;;;;21.73;55.38;98966.32;68406;1279;1015444;-70
2024/02/28 09:55:30;;;;;;;;;;;;;;;21.72;55.73;98968.02;68419;1279;1015092;-70
2024/02/28 09:58:33;;;;;;;;;;;;;;;21.69;55.94;98973.09;68396;1279;1015771;-69
2024/02/28 10:01:36;;;;;;;;;;;;;;;21.56;55.45;98971.83;68395;1279;1015477;-69
2024/02/28 10:04:38;;;;;;;;;;;;;;;21.34;55.49;98976.70;68390;1279;1015760;-69
2024/02/28 10:07:41;;;;;;;;;;;;;;;21.04;56.12;98981.54;68398;1279;1015387;-70
2024/02/28 10:10:43;;;;;;;;;;;;;;;21.10;56.66;98984.84;68400;1279;1015601;-70
2024/02/28 10:13:46;;;;;;;;;;;;;;;21.13;57.48;98990.45;68396;1279;1015297;-70
2024/02/28 10:16:48;;;;;;;;;;;;;;;21.15;57.36;98987.70;68388;1279;1015969;-70
2024/02/28 10:19:51;;;;;;;;;;;;;;;21.18;57.92;98989.42;68398;1279;1015495;-70
2024/02/28 10:22:54;;;;;;;;;;;;;;;21.39;57.84;98983.67;68409;1279;1015310;-69
2024/02/28 10:25:56;;;;;;;;;;;;;;;21.41;57.64;98983.25;68392;1279;1015351;-70
2024/02/28 10:28:59;;;;;;;;;;;;;;;21.54;57.10;98981.77;68406;1279;1015607;-70
2024/02/28 10:32:02;;;;;;;;;;;;;;;21.60;55.18;98978.82;68400;1279;1016134;-70
2024/02/28 10:35:06;;;;;;;;;;;;;;;21.44;55.01;98981.05;68410;1279;1016113;-65
2024/02/28 10:38:08;;;;;;;;;;;;;;;21.30;54.51;98986.73;68390;1279;1015783;-70
2024/02/28 10:41:13;;;;;;;;;;;;;;;21.36;54.04;98987.21;68400;1279;1015420;-70
2024/02/28 10:44:16;;;;;;;;;;;;;;;21.19;54.86;98994.26;68396;1279;1015581;-70
2024/02/28 10:47:18;;;;;;;;;;;;;;;21.03;55.35;98987.52;68382;1279;1015743;-69
2024/02/28 10:50:21;;;;;;;;;;;;;;;20.92;55.62;98991.70;68391;1279;1015934;-69
2024/02/28 10:53:24;;;;;;;;;;;;;;;20.77;56.07;98991.95;68394;1279;1015992;-70
2024/02/28 10:56:27;;;;;;;;;;;;;;;20.60;57.00;98990.20;68406;1279;1016334;-70
2024/02/28 10:59:29;;;;;;;;;;;;;;;20.55;57.43;98991.61;68399;1279;1015482;-69
2024/02/28 11:02:32;;;;;;;;;;;;;;;20.53;56.43;98992.73;68387;1279;1015481;-69
2024/02/28 11:05:34;;;;;;;;;;;;;;;20.31;57.53;98994.19;68400;1279;1015135;-70
2024/02/28 11:08:37;;;;;;;;;;;;;;;20.28;57.29;98999.13;68396;1279;1016069;-69
2024/02/28 11:11:40;;;;;;;;;;;;;;;20.33;57.36;99000.73;68412;1279;1016014;-69
2024/02/28 11:14:42;;;;;;;;;;;;;;;20.36;56.97;99000.76;68400;1279;1015442;-70
2024/02/28 11:17:45;;;;;;;;;;;;;;;20.35;56.26;98996.05;68384;1279;1015960;-69
2024/02/28 11:20:50;;;;;;;;;;;;;;;20.20;56.61;98996.52;68390;1279;1015658;-70
2024/02/28 11:23:52;;;;;;;;;;;;;;;20.14;56.57;98995.98;68397;1279;1015831;-70
2024/02/28 11:26:56;;;;;;;;;;;;;;;20.23;56.02;98994.23;68398;1279;1015633;-70
2024/02/28 11:29:58;;;;;;;;;;;;;;;20.43;56.05;98993.17;68391;1279;1015826;-67
2024/02/28 11:33:01;;;;;;;;;;;;;;;20.52;56.04;98986.42;68408;1279;1016019;-70
2024/02/28 11:36:04;;;;;;;;;;;;;;;20.57;55.91;98991.20;68404;1279;1015400;-70
2024/02/28 11:39:06;;;;;;;;;;;;;;;20.65;55.68;98993.98;68388;1279;1016234;-70
2024/02/28 11:42:09;;;;;;;;;;;;;;;20.67;54.95;98995.40;68396;1279;1015621;-70
2024/02/28 11:45:11;;;;;;;;;;;;;;;20.73;55.03;98992.83;68398;1279;1015947;-70
2024/02/28 11:48:14;;;;;;;;;;;;;;;20.75;53.75;98995.70;68395;1279;1016188;-70
2024/02/28 11:51:17;;;;;;;;;;;;;;;20.84;54.36;98993.42;68379;1279;1015918;-69
2024/02/28 11:54:19;;;;;;;;;;;;;;;20.90;52.87;98994.73;68400;1279;1015695;-69
2024/02/28 11:57:22;;;;;;;;;;;;;;;20.76;52.72;98992.20;68398;1279;1016045;-70
2024/02/28 12:00:24;;;;;;;;;;;;;;;20.73;52.76;98992.20;68393;1279;1016246;-70
2024/02/28 12:03:27;;;;;;;;;;;;;;;20.51;52.61;98993.73;68378;1279;1016373;-70
2024/02/28 12:06:30;;;;;;;;;;;;;;;20.36;52.69;98992.08;68390;1279;1015347;-69
2024/02/28 12:09:33;;;;;;;;;;;;;;;20.22;53.43;98998.30;68404;1279;1016051;-70
2024/02/28 12:12:35;;;;;;;;;;;;;;;20.10;54.02;98997.05;68388;1279;1015763;-69
2024/02/28 12:15:38;;;;;;;;;;;;;;;20.10;53.42;98996.72;68420;1279;1015963;-70
2024/02/28 12:18:40;;;;;;;;;;;;;;;19.99;53.24;98993.70;68392;1279;1014985;-70
2024/02/28 12:21:43;;;;;;;;;;;;;;;19.89;53.37;98998.19;68417;1279;1016779;-70
2024/02/28 12:24:46;;;;;;;;;;;;;;;19.88;53.97;98996.08;68399;1279;1015642;-68
2024/02/28 12:27:48;;;;;;;;;;;;;;;19.79;53.74;98998.83;68394;1279;1016113;-69
2024/02/28 12:30:53;;;;;;;;;;;;;;;19.66;54.84;98999.94;68390;1279;1015445;-69
2024/02/28 12:33:56;;;;;;;;;;;;;;;19.53;55.11;99007.30;68389;1279;1016353;-70
2024/02/28 12:36:59;;;;;;;;;;;;;;;19.27;55.99;99003.09;68415;1279;1015815;-70
2024/02/28 12:40:04;;;;;;;;;;;;;;;19.15;56.92;99003.16;68388;1279;1016990;-69
2024/02/28 12:43:07;;;;;;;;;;;;;;;18.82;58.78;99005.77;68408;1279;1015627;-69
2024/02/28 12:46:09;;;;;;;;;;;;;;;18.76;58.23;99007.10;68428;1279;1015340;-70
2024/02/28 12:49:12;;;;;;;;;;;;;;;18.80;59.71;99010.54;68414;1279;1016198;-69
2024/02/28 12:52:14;;;;;;;;;;;;;;;18.84;60.52;99014.80;68402;1279;1015833;-70
2024/02/28 12:55:18;;;;;;;;;;;;;;;18.75;60.65;99016.85;68408;1279;1015905;-70
2024/02/28 12:58:20;;;;;;;;;;;;;;;18.62;60.64;99016.96;68391;1279;1016382;-70
2024/02/28 13:01:23;;;;;;;;;;;;;;;18.70;62.93;99022.61;68405;1279;1015882;-70
2024/02/28 13:04:28;;;;;;;;;;;;;;;18.85;61.46;99020.77;68398;1279;1015148;-69
2024/02/28 13:07:30;;;;;;;;;;;;;;;18.62;62.18;99022.87;68394;1279;1015412;-69
2024/02/28 13:10:35;;;;;;;;;;;;;;;18.53;62.77;99020.81;68394;1279;1015235;-69
2024/02/28 13:13:38;;;;;;;;;;;;;;;18.50;65.39;99022.20;68402;1279;1015602;-69
2024/02/28 13:16:41;;;;;;;;;;;;;;;18.48;66.26;99017.91;68394;1279;1016068;-69
2024/02/28 13:19:43;;;;;;;;;;;;;;;18.45;67.03;99021.21;68398;1279;1015047;-70
2024/02/28 13:22:46;;;;;;;;;;;;;;;18.42;66.53;99022.17;68416;1279;1015376;-61
2024/02/28 13:25:49;;;;;;;;;;;;;;;18.39;67.19;99027.17;68417;1279;1015865;-69
2024/02/28 13:28:51;;;;;;;;;;;;;;;18.20;68.23;99030.69;68387;1279;1016086;-69
2024/02/28 13:31:54;;;;;;;;;;;;;;;18.07;68.00;99031.34;68413;1279;1015656;-69
2024/02/28 13:34:57;;;;;;;;;;;;;;;18.04;68.24;99034.93;68415;1279;1015841;-63
2024/02/28 13:38:00;;;;;;;;;;;;;;;17.96;67.62;99040.59;68397;1279;1015774;-70
2024/02/28 13:41:03;;;;;;;;;;;;;;;17.88;68.95;99039.17;68402;1279;1016054;-70
2024/02/28 13:44:06;;;;;;;;;;;;;;;17.79;69.10;99045.06;68410;1279;1016576;-69
2024/02/28 13:47:09;;;;;;;;;;;;;;;17.76;69.43;99046.91;68402;1279;1015499;-69
2024/02/28 13:50:11;;;;;;;;;;;;;;;17.71;70.35;99053.38;68411;1279;1015968;-70
2024/02/28 13:53:14;;;;;;;;;;;;;;;17.57;72.63;99060.88;68398;1279;1015726;-70
2024/02/28 13:56:17;;;;;;;;;;;;;;;17.45;73.34;99064.61;68405;1279;1015724;-69
2024/02/28 13:59:20;;;;;;;;;;;;;;;17.19;73.63;99069.87;68409;1279;1015999;-69
2024/02/28 14:02:25;;;;;;;;;;;;;;;16.99;74.09;99073.08;68427;1279;1015997;-69
2024/02/28 14:05:28;;;;;;;;;;;;;;;16.89;75.42;99071.63;68412;1279;1015238;-61
2024/02/28 14:08:31;;;;;;;;;;;;;;;16.90;77.64;99081.25;68416;1279;1016227;-69
2024/02/28 14:11:34;;;;;;;;;;;;;;;16.77;77.86;99078.42;68392;1279;1015998;-70
2024/02/28 14:14:36;;;;;;;;;;;;;;;16.70;76.95;99084.24;68412;1279;1015220;-70
2024/02/28 14:17:39;;;;;;;;;;;;;;;16.59;77.33;99090.82;68416;1279;1015920;-70
2024/02/28 14:20:42;;;;;;;;;;;;;;;16.32;78.61;99090.36;68409;1279;1015556;-70
2024/02/28 14:23:45;;;;;;;;;;;;;;;16.30;78.47;99090.67;68425;1279;1015677;-70
2024/02/28 14:26:47;;;;;;;;;;;;;;;16.19;78.68;99094.04;68400;1279;1016307;-63
2024/02/28 14:29:50;;;;;;;;;;;;;;;16.13;78.87;99095.59;68421;1279;1016156;-70
2024/02/28 14:32:53;;;;;;;;;;;;;;;16.07;79.01;99096.89;68412;1279;1015403;-69
2024/02/28 14:35:55;;;;;;;;;;;;;;;16.06;79.70;99108.81;68395;1279;1016066;-69
2024/02/28 14:38:58;;;;;;;;;;;;;;;15.96;79.74;99110.99;68400;1279;1015544;-70
2024/02/28 14:42:01;;;;;;;;;;;;;;;15.85;79.17;99114.48;68405;1279;1015158;-70
2024/02/28 14:45:04;;;;;;;;;;;;;;;15.80;80.14;99114.91;68409;1279;1016322;-69
2024/02/28 14:48:07;;;;;;;;;;;;;;;15.84;79.72;99115.45;68426;1279;1015941;-70
2024/02/28 14:51:09;;;;;;;;;;;;;;;15.76;80.20;99117.14;68383;1279;1015902;-70
2024/02/28 14:54:12;;;;;;;;;;;;;;;15.76;80.94;99120.27;68408;1279;1015319;-70
2024/02/28 14:57:15;;;;;;;;;;;;;;;15.77;80.88;99123.40;68401;1279;1015515;-70
2024/02/28 15:00:19;;;;;;;;;;;;;;;15.76;81.33;99128.42;68408;1279;1016094;-70
2024/02/28 15:03:23;;;;;;;;;;;;;;;15.60;81.94;99130.15;68417;1279;1015965;-70
2024/02/28 15:06:25;;;;;;;;;;;;;;;15.48;82.25;99136.39;68408;1279;1016092;-70
2024/02/28 15:09:28;;;;;;;;;;;;;;;15.43;81.96;99141.99;68424;1279;1016068;-70
2024/02/28 15:12:32;;;;;;;;;;;;;;;15.34;82.92;99149.23;68419;1279;1015865;-70
2024/02/28 15:15:35;;;;;;;;;;;;;;;15.29;82.73;99145.55;68415;1279;1015375;-71
2024/02/28 15:18:37;;;;;;;;;;;;;;;15.26;82.68;99146.45;68400;1279;1015918;-69
2024/02/28 15:21:40;;;;;;;;;;;;;;;15.27;83.01;99144.79;68408;1279;1015708;-70
2024/02/28 15:24:42;;;;;;;;;;;;;;;15.32;80.97;99144.27;68417;1279;1014635;-70
2024/02/28 15:27:45;;;;;;;;;;;;;;;15.25;80.89;99151.62;68404;1279;1015519;-62